createdAt,value
2022-08-04T00:01:03.934Z,93604.00
2022-08-04T00:03:55.632Z,93611.94
2022-08-04T00:06:22.809Z,93609.28
2022-08-04T00:08:55.688Z,93612.44
2022-08-04T00:11:23.998Z,93608.50
2022-08-04T00:13:58.250Z,93611.13
2022-08-04T00:16:38.422Z,93618.00
2022-08-04T00:19:26.749Z,93610.84
2022-08-04T00:22:00.117Z,93614.78
2022-08-04T00:24:29.987Z,93612.66
2022-08-04T00:26:57.611Z,93611.88
2022-08-04T00:29:25.352Z,93608.69
2022-08-04T00:31:55.096Z,93608.97
2022-08-04T00:34:25.458Z,93610.00
2022-08-04T00:36:55.820Z,93623.19
2022-08-04T00:39:23.328Z,93616.88
2022-08-04T00:42:01.685Z,93619.25
2022-08-04T00:44:41.438Z,93625.84
2022-08-04T00:47:15.121Z,93619.47
2022-08-04T00:49:55.017Z,93618.97
2022-08-04T00:52:41.024Z,93614.16
2022-08-04T00:55:21.613Z,93614.94
2022-08-04T00:58:04.106Z,93616.25
2022-08-04T01:00:51.724Z,93618.16
2022-08-04T01:03:24.824Z,93626.22
2022-08-04T01:05:55.284Z,93630.72
2022-08-04T01:08:34.809Z,93632.22
2022-08-04T01:11:21.070Z,93624.81
2022-08-04T01:13:59.822Z,93621.31
2022-08-04T01:16:27.942Z,93620.41
2022-08-04T01:19:14.155Z,93622.72
2022-08-04T01:21:44.649Z,93621.69
2022-08-04T01:24:11.775Z,93621.25
2022-08-04T01:26:57.915Z,93623.66
2022-08-04T01:29:43.872Z,93628.84
2022-08-04T01:32:34.541Z,93628.25
2022-08-04T01:35:02.070Z,93621.28
2022-08-04T01:37:44.605Z,93627.25
2022-08-04T01:40:14.026Z,93619.91
2022-08-04T01:42:42.670Z,93629.44
2022-08-04T01:45:11.408Z,93634.25
2022-08-04T01:47:41.917Z,93631.09
2022-08-04T01:50:10.571Z,93632.59
2022-08-04T01:52:38.404Z,93627.06
2022-08-04T01:55:07.120Z,93630.59
2022-08-04T01:57:39.430Z,93613.28
2022-08-04T02:00:07.621Z,93616.44
2022-08-04T02:02:35.245Z,93622.03
2022-08-04T02:05:02.870Z,93618.12
2022-08-04T02:07:40.335Z,93620.13
2022-08-04T02:10:08.889Z,93611.28
2022-08-04T02:12:54.835Z,93609.25
2022-08-04T02:15:25.245Z,93611.53
2022-08-04T02:18:04.747Z,93603.69
2022-08-04T02:20:39.277Z,93609.78
2022-08-04T02:23:20.045Z,93619.34
2022-08-04T02:25:49.006Z,93614.41
2022-08-04T02:28:22.036Z,93614.28
2022-08-04T02:30:55.811Z,93621.69
2022-08-04T02:33:30.932Z,93617.72
2022-08-04T02:36:02.212Z,93620.47
2022-08-04T02:38:43.002Z,93619.59
2022-08-04T02:41:11.539Z,93619.75
2022-08-04T02:43:50.724Z,93627.69
2022-08-04T02:46:21.365Z,93621.19
2022-08-04T02:48:49.127Z,93618.91
2022-08-04T02:51:17.726Z,93620.72
2022-08-04T02:53:46.746Z,93617.34
2022-08-04T02:56:15.686Z,93619.41
2022-08-04T02:58:42.878Z,93611.78
2022-08-04T03:01:10.478Z,93617.34
2022-08-04T03:03:43.123Z,93618.44
2022-08-04T03:06:11.691Z,93614.28
2022-08-04T03:08:58.272Z,93614.91
2022-08-04T03:11:44.613Z,93614.66
2022-08-04T03:14:30.709Z,93620.63
2022-08-04T03:17:17.172Z,93618.91
2022-08-04T03:20:07.389Z,93616.91
2022-08-04T03:23:11.924Z,93623.16
2022-08-04T03:25:56.986Z,93623.56
2022-08-04T03:28:31.655Z,93628.63
2022-08-04T03:31:03.253Z,93625.62
2022-08-04T03:33:45.616Z,93626.78
2022-08-04T03:36:31.772Z,93627.75
2022-08-04T03:38:59.470Z,93620.19
2022-08-04T03:41:51.784Z,93626.38
2022-08-04T03:44:29.529Z,93629.87
2022-08-04T03:46:56.948Z,93631.84
2022-08-04T03:49:43.322Z,93629.44
2022-08-04T03:52:49.369Z,93627.16
2022-08-04T03:55:20.041Z,93632.31
2022-08-04T03:57:55.363Z,93627.56
2022-08-04T04:00:39.496Z,93632.38
2022-08-04T04:03:26.715Z,93631.34
2022-08-04T04:06:03.130Z,93634.56
2022-08-04T04:08:46.574Z,93630.91
2022-08-04T04:11:29.264Z,93632.84
2022-08-04T04:14:06.329Z,93629.34
2022-08-04T04:16:45.848Z,93623.16
2022-08-04T04:19:32.354Z,93633.72
2022-08-04T04:22:09.049Z,93634.09
2022-08-04T04:24:51.949Z,93640.88
2022-08-04T04:27:39.356Z,93635.56
2022-08-04T04:30:23.824Z,93630.16
2022-08-04T04:33:09.832Z,93625.75
2022-08-04T04:36:06.884Z,93624.25
2022-08-04T04:38:42.719Z,93636.03
2022-08-04T04:41:16.250Z,93634.16
2022-08-04T04:43:52.337Z,93641.47
2022-08-04T04:46:25.990Z,93637.91
2022-08-04T04:48:56.281Z,93645.09
2022-08-04T04:51:29.366Z,93634.09
2022-08-04T04:54:19.185Z,93632.06
2022-08-04T04:57:07.606Z,93629.25
2022-08-04T04:59:37.006Z,93636.44
2022-08-04T05:02:22.739Z,93630.22
2022-08-04T05:04:56.254Z,93632.59
2022-08-04T05:07:24.014Z,93632.19
2022-08-04T05:09:56.104Z,93638.16
2022-08-04T05:14:31.470Z,93633.41
2022-08-04T05:15:25.845Z,93630.81
2022-08-04T05:17:54.886Z,93632.00
2022-08-04T05:20:28.363Z,93640.44
2022-08-04T05:23:02.194Z,93641.28
2022-08-04T05:25:29.486Z,93627.88
2022-08-04T05:27:59.728Z,93631.06
2022-08-04T05:30:28.913Z,93631.63
2022-08-04T05:32:59.962Z,93632.47
2022-08-04T05:35:50.432Z,93632.53
2022-08-04T05:38:23.517Z,93628.53
2022-08-04T05:40:51.779Z,93630.63
2022-08-04T05:43:19.993Z,93631.66
2022-08-04T05:45:48.713Z,93630.06
2022-08-04T05:48:17.000Z,93625.53
2022-08-04T05:50:46.592Z,93627.59
2022-08-04T05:53:15.507Z,93627.09
2022-08-04T05:55:48.822Z,93625.47
2022-08-04T05:58:27.332Z,93630.63
2022-08-04T06:00:54.949Z,93628.87
2022-08-04T06:03:23.705Z,93623.19
2022-08-04T06:05:52.176Z,93626.31
2022-08-04T06:08:19.885Z,93630.13
2022-08-04T06:10:48.819Z,93625.12
2022-08-04T06:13:47.932Z,93624.59
2022-08-04T06:16:17.932Z,93618.53
2022-08-04T06:19:59.981Z,93619.38
2022-08-04T06:21:48.990Z,93621.81
2022-08-04T06:24:18.097Z,93613.41
2022-08-04T06:26:48.084Z,93611.59
2022-08-04T06:29:24.934Z,93610.91
2022-08-04T06:32:30.315Z,93600.56
2022-08-04T06:34:47.771Z,93604.22
2022-08-04T06:37:41.052Z,93606.16
2022-08-04T06:40:29.251Z,93608.41
2022-08-04T06:42:53.056Z,93601.41
2022-08-04T06:45:21.565Z,93603.09
2022-08-04T06:47:49.568Z,93607.38
2022-08-04T06:51:25.743Z,93607.34
2022-08-04T06:53:05.914Z,93605.59
2022-08-04T06:55:34.575Z,93602.31
2022-08-04T06:58:03.476Z,93596.00
2022-08-04T07:00:32.754Z,93596.38
2022-08-04T07:03:00.528Z,93599.03
2022-08-04T07:05:28.594Z,93598.13
2022-08-04T07:07:57.844Z,93589.78
2022-08-04T07:10:28.539Z,93592.94
2022-08-04T07:13:00.416Z,93594.53
2022-08-04T07:15:28.447Z,93590.53
2022-08-04T07:18:00.454Z,93591.69
2022-08-04T07:20:34.411Z,93591.28
2022-08-04T07:23:07.194Z,93584.84
2022-08-04T07:26:00.321Z,93589.56
2022-08-04T07:28:25.575Z,93577.88
2022-08-04T07:30:53.940Z,93574.44
2022-08-04T07:33:22.152Z,93577.75
2022-08-04T07:36:08.401Z,93571.62
2022-08-04T07:38:46.483Z,93576.22
2022-08-04T07:41:38.705Z,93584.06
2022-08-04T07:44:07.113Z,93575.41
2022-08-04T07:46:34.641Z,93576.84
2022-08-04T07:49:01.893Z,93577.31
2022-08-04T07:51:30.841Z,93573.94
2022-08-04T07:53:58.986Z,93565.47
2022-08-04T07:56:27.218Z,93579.78
2022-08-04T07:58:55.220Z,93576.63
2022-08-04T08:01:23.831Z,93575.66
2022-08-04T08:03:53.049Z,93574.56
2022-08-04T08:06:33.308Z,93571.22
2022-08-04T08:09:13.813Z,93570.38
2022-08-04T08:12:37.804Z,93576.69
2022-08-04T08:14:36.542Z,93572.09
2022-08-04T08:17:04.510Z,93583.75
2022-08-04T08:19:32.539Z,93567.87
2022-08-04T08:22:01.773Z,93576.66
2022-08-04T08:24:35.105Z,93571.44
2022-08-04T08:27:07.103Z,93577.53
2022-08-04T08:29:35.442Z,93577.56
2022-08-04T08:32:08.238Z,93584.25
2022-08-04T08:34:36.666Z,93580.59
2022-08-04T08:37:15.022Z,93576.41
2022-08-04T08:39:49.856Z,93576.59
2022-08-04T08:42:47.069Z,93580.50
2022-08-04T08:45:40.759Z,93591.25
2022-08-04T08:48:21.811Z,93584.72
2022-08-04T08:51:03.148Z,93581.47
2022-08-04T08:53:40.328Z,93572.97
2022-08-04T08:56:19.896Z,93572.62
2022-08-04T08:59:13.553Z,93573.66
2022-08-04T09:01:53.239Z,93572.53
2022-08-04T09:04:39.586Z,93576.88
2022-08-04T09:07:07.333Z,93575.41
2022-08-04T09:09:41.074Z,93584.50
2022-08-04T09:12:19.084Z,93573.41
2022-08-04T09:14:50.553Z,93568.72
2022-08-04T09:17:21.118Z,93566.66
2022-08-04T09:20:02.229Z,93568.81
2022-08-04T09:22:49.659Z,93559.31
2022-08-04T09:25:22.144Z,93564.44
2022-08-04T09:27:57.280Z,93561.53
2022-08-04T09:30:32.962Z,93561.81
2022-08-04T09:33:00.527Z,93562.78
2022-08-04T09:35:34.215Z,93559.87
2022-08-04T09:38:16.423Z,93561.78
2022-08-04T09:40:56.855Z,93553.91
2022-08-04T09:43:59.371Z,93551.94
2022-08-04T09:46:40.950Z,93561.37
2022-08-04T09:49:18.294Z,93555.53
2022-08-04T09:51:57.238Z,93548.66
2022-08-04T09:54:30.289Z,93551.88
2022-08-04T09:57:19.206Z,93553.94
2022-08-04T10:00:02.965Z,93553.78
2022-08-04T10:02:44.910Z,93552.87
2022-08-04T10:05:15.338Z,93551.06
2022-08-04T10:08:15.063Z,93555.97
2022-08-04T10:10:57.104Z,93555.16
2022-08-04T10:13:31.569Z,93558.03
2022-08-04T10:15:59.124Z,93549.22
2022-08-04T10:18:51.104Z,93554.94
2022-08-04T10:21:24.682Z,93556.09
2022-08-04T10:24:10.472Z,93551.16
2022-08-04T10:26:56.907Z,93547.44
2022-08-04T10:29:27.621Z,93548.75
2022-08-04T10:31:59.578Z,93544.28
2022-08-04T10:34:29.673Z,93539.03
2022-08-04T10:37:02.675Z,93542.03
2022-08-04T10:39:42.247Z,93548.41
2022-08-04T10:42:25.597Z,93542.88
2022-08-04T10:45:06.300Z,93547.28
2022-08-04T10:47:38.519Z,93539.84
2022-08-04T10:50:09.457Z,93534.62
2022-08-04T10:52:37.696Z,93538.53
2022-08-04T10:55:22.348Z,93539.09
2022-08-04T10:58:14.481Z,93532.16
2022-08-04T11:00:45.263Z,93531.28
2022-08-04T11:03:25.155Z,93531.38
2022-08-04T11:05:54.024Z,93534.06
2022-08-04T11:08:23.813Z,93528.19
2022-08-04T11:11:03.443Z,93527.03
2022-08-04T11:13:51.327Z,93525.25
2022-08-04T11:16:21.917Z,93522.87
2022-08-04T11:19:05.090Z,93518.91
2022-08-04T11:21:34.389Z,93516.53
2022-08-04T11:24:04.024Z,93510.00
2022-08-04T11:26:42.927Z,93518.47
2022-08-04T11:29:36.623Z,93510.59
2022-08-04T11:32:06.013Z,93509.31
2022-08-04T11:34:35.779Z,93506.38
2022-08-04T11:37:16.080Z,93506.19
2022-08-04T11:40:07.190Z,93503.22
2022-08-04T11:42:38.901Z,93499.06
2022-08-04T11:45:08.039Z,93509.47
2022-08-04T11:47:39.878Z,93505.09
2022-08-04T11:50:12.943Z,93515.19
2022-08-04T11:52:43.119Z,93510.31
2022-08-04T11:55:12.735Z,93514.41
2022-08-04T11:57:40.933Z,93503.66
2022-08-04T12:00:10.804Z,93502.88
2022-08-04T12:02:57.396Z,93499.31
2022-08-04T12:05:37.129Z,93500.50
2022-08-04T12:08:05.283Z,93497.38
2022-08-04T12:10:45.861Z,93497.22
2022-08-04T12:13:21.064Z,93495.38
2022-08-04T12:15:52.367Z,93490.78
2022-08-04T12:18:25.087Z,93483.78
2022-08-04T12:20:58.063Z,93491.50
2022-08-04T12:23:38.826Z,93485.00
2022-08-04T12:26:27.411Z,93480.94
2022-08-04T12:29:16.148Z,93493.09
2022-08-04T12:31:47.000Z,93493.84
2022-08-04T12:34:29.955Z,93497.97
2022-08-04T12:37:30.441Z,93500.06
2022-08-04T12:40:30.358Z,93497.44
2022-08-04T12:42:59.992Z,93489.75
2022-08-04T12:45:29.674Z,93494.94
2022-08-04T12:47:59.135Z,93482.91
2022-08-04T12:50:26.814Z,93484.44
2022-08-04T12:53:02.014Z,93467.13
2022-08-04T12:55:31.747Z,93475.28
2022-08-04T12:58:00.346Z,93471.25
2022-08-04T13:00:40.813Z,93468.84
2022-08-04T13:03:15.970Z,93468.47
2022-08-04T13:05:45.509Z,93475.63
2022-08-04T13:08:15.607Z,93472.25
2022-08-04T13:10:46.552Z,93471.50
2022-08-04T13:13:19.130Z,93468.47
2022-08-04T13:16:03.783Z,93463.88
2022-08-04T13:18:42.848Z,93465.75
2022-08-04T13:21:20.199Z,93461.09
2022-08-04T13:24:20.662Z,93460.75
2022-08-04T13:26:44.423Z,93465.09
2022-08-04T13:29:59.524Z,93454.72
2022-08-04T13:32:15.533Z,93454.72
2022-08-04T13:34:48.938Z,93453.16
2022-08-04T13:37:22.511Z,93447.72
2022-08-04T13:39:55.599Z,93451.00
2022-08-04T13:42:25.961Z,93451.81
2022-08-04T13:44:56.322Z,93451.22
2022-08-04T13:47:25.891Z,93451.69
2022-08-04T13:50:11.555Z,93453.66
2022-08-04T13:52:40.146Z,93442.12
2022-08-04T13:55:08.196Z,93445.47
2022-08-04T13:57:44.346Z,93444.03
2022-08-04T14:00:12.411Z,93437.09
2022-08-04T14:02:42.785Z,93437.84
2022-08-04T14:05:18.353Z,93437.09
2022-08-04T14:07:54.367Z,93443.31
2022-08-04T14:10:22.960Z,93437.66
2022-08-04T14:12:52.086Z,93437.09
2022-08-04T14:15:57.603Z,93435.47
2022-08-04T14:18:26.547Z,93431.28
2022-08-04T14:20:59.239Z,93433.16
2022-08-04T14:23:31.781Z,93435.56
2022-08-04T14:26:00.827Z,93419.53
2022-08-04T14:28:47.070Z,93426.91
2022-08-04T14:31:18.851Z,93425.28
2022-08-04T14:34:02.712Z,93419.53
2022-08-04T14:37:13.328Z,93417.16
2022-08-04T14:40:19.039Z,93413.22
2022-08-04T14:42:40.949Z,93413.34
2022-08-04T14:45:08.705Z,93423.06
2022-08-04T14:47:55.054Z,93420.34
2022-08-04T14:50:33.414Z,93422.47
2022-08-04T14:53:07.080Z,93418.66
2022-08-04T14:55:34.763Z,93421.28
2022-08-04T14:58:36.762Z,93417.00
2022-08-04T15:00:50.952Z,93417.03
2022-08-04T15:03:19.256Z,93420.16
2022-08-04T15:05:55.268Z,93425.44
2022-08-04T15:08:32.261Z,93414.47
2022-08-04T15:11:02.582Z,93417.00
2022-08-04T15:13:32.358Z,93415.19
2022-08-04T15:16:07.087Z,93417.50
2022-08-04T15:18:36.868Z,93431.06
2022-08-04T15:21:04.987Z,93415.87
2022-08-04T15:23:39.315Z,93425.63
2022-08-04T15:26:14.179Z,93424.84
2022-08-04T15:28:44.455Z,93418.78
2022-08-04T15:32:04.403Z,93422.78
2022-08-04T15:34:00.063Z,93409.88
2022-08-04T15:36:34.881Z,93406.13
2022-08-04T15:39:05.732Z,93420.44
2022-08-04T15:41:36.616Z,93404.97
2022-08-04T15:44:22.659Z,93409.75
2022-08-04T15:46:50.161Z,93409.88
2022-08-04T15:49:21.840Z,93410.66
2022-08-04T15:52:22.507Z,93415.63
2022-08-04T15:55:10.256Z,93404.91
2022-08-04T15:58:00.892Z,93420.16
2022-08-04T16:00:28.935Z,93407.28
2022-08-04T16:02:56.807Z,93414.81
2022-08-04T16:05:24.253Z,93419.97
2022-08-04T16:07:58.610Z,93425.56
2022-08-04T16:10:35.091Z,93426.09
2022-08-04T16:13:07.258Z,93420.38
2022-08-04T16:15:41.019Z,93421.13
2022-08-04T16:18:14.359Z,93427.38
2022-08-04T16:20:55.102Z,93423.06
2022-08-04T16:23:52.445Z,93417.97
2022-08-04T16:26:56.398Z,93423.72
2022-08-04T16:29:23.958Z,93417.72
2022-08-04T16:32:07.302Z,93416.94
2022-08-04T16:34:48.002Z,93419.28
2022-08-04T16:37:19.533Z,93422.41
2022-08-04T16:39:49.924Z,93424.47
2022-08-04T16:42:28.111Z,93424.78
2022-08-04T16:45:01.517Z,93431.59
2022-08-04T16:47:48.317Z,93428.69
2022-08-04T16:50:22.559Z,93432.31
2022-08-04T16:52:51.172Z,93430.59
2022-08-04T16:55:19.295Z,93435.59
2022-08-04T16:57:47.239Z,93433.16
2022-08-04T17:00:15.537Z,93433.69
2022-08-04T17:02:46.261Z,93438.63
2022-08-04T17:05:38.661Z,93441.91
2022-08-04T17:10:57.977Z,93440.75
2022-08-04T17:14:04.515Z,93449.59
2022-08-04T17:16:18.479Z,93444.06
2022-08-04T17:18:47.857Z,93448.88
2022-08-04T17:21:19.804Z,93453.53
2022-08-04T17:24:13.092Z,93447.63
2022-08-04T17:26:41.796Z,93456.53
2022-08-04T17:29:13.596Z,93458.09
2022-08-04T17:31:47.986Z,93464.16
2022-08-04T17:34:19.564Z,93458.56
2022-08-04T17:36:48.358Z,93467.97
2022-08-04T17:39:20.419Z,93462.59
2022-08-04T17:41:55.178Z,93472.91
2022-08-04T17:44:34.670Z,93467.28
2022-08-04T17:47:12.366Z,93468.16
2022-08-04T17:49:44.592Z,93477.84
2022-08-04T17:52:37.427Z,93479.44
2022-08-04T17:55:16.587Z,93483.59
2022-08-04T17:57:52.091Z,93488.25
2022-08-04T18:00:20.306Z,93484.63
2022-08-04T18:02:55.265Z,93486.19
2022-08-04T18:05:50.204Z,93494.50
2022-08-04T18:08:39.595Z,93497.97
2022-08-04T18:11:22.000Z,93498.03
2022-08-04T18:13:54.188Z,93499.22
2022-08-04T18:16:24.906Z,93498.50
2022-08-04T18:19:09.208Z,93499.44
2022-08-04T18:21:46.796Z,93503.91
2022-08-04T18:24:34.155Z,93507.25
2022-08-04T18:27:06.532Z,93517.78
2022-08-04T18:29:39.038Z,93510.66
2022-08-04T18:32:09.307Z,93512.59
2022-08-04T18:34:40.938Z,93518.59
2022-08-04T18:38:06.816Z,93522.34
2022-08-04T18:40:31.156Z,93525.22
2022-08-04T18:43:00.805Z,93529.19
2022-08-04T18:45:34.148Z,93535.00
2022-08-04T18:48:04.039Z,93539.75
2022-08-04T18:51:09.981Z,93536.44
2022-08-04T18:53:34.848Z,93538.47
2022-08-04T18:56:20.102Z,93542.84
2022-08-04T18:58:55.264Z,93540.81
2022-08-04T19:01:29.984Z,93542.25
2022-08-04T19:04:32.400Z,93555.19
2022-08-04T19:07:23.320Z,93554.38
2022-08-04T19:09:51.907Z,93550.00
2022-08-04T19:12:27.078Z,93555.31
2022-08-04T19:14:58.653Z,93559.41
2022-08-04T19:17:53.809Z,93558.00
2022-08-04T19:20:26.369Z,93554.94
2022-08-04T19:24:28.648Z,93563.41
2022-08-04T19:25:58.857Z,93560.25
2022-08-04T19:28:33.928Z,93564.59
2022-08-04T19:31:03.798Z,93569.19
2022-08-04T19:33:59.478Z,93566.81
2022-08-04T19:36:19.101Z,93558.34
2022-08-04T19:38:46.800Z,93569.53
2022-08-04T19:41:15.865Z,93558.69
2022-08-04T19:43:47.307Z,93574.56
2022-08-04T19:46:15.406Z,93574.69
2022-08-04T19:48:44.994Z,93573.97
2022-08-04T19:51:28.559Z,93574.78
2022-08-04T19:54:02.921Z,93576.75
2022-08-04T19:56:40.373Z,93574.75
2022-08-04T19:59:11.401Z,93576.00
2022-08-04T20:01:45.070Z,93573.47
2022-08-04T20:04:14.449Z,93579.94
2022-08-04T20:06:42.640Z,93580.53
2022-08-04T20:09:25.051Z,93582.16
2022-08-04T20:11:55.420Z,93586.41
2022-08-04T20:14:32.141Z,93583.75
2022-08-04T20:17:01.846Z,93581.56
2022-08-04T20:19:30.326Z,93587.03
2022-08-04T20:21:59.999Z,93579.53
2022-08-04T20:24:40.529Z,93581.72
2022-08-04T20:27:21.711Z,93595.81
2022-08-04T20:29:50.897Z,93583.50
2022-08-04T20:32:19.672Z,93590.59
2022-08-04T20:34:47.863Z,93588.50
2022-08-04T20:37:15.693Z,93595.41
2022-08-04T20:39:43.131Z,93593.97
2022-08-04T20:42:11.562Z,93590.66
2022-08-04T20:44:46.373Z,93590.59
2022-08-04T20:47:14.226Z,93595.56
2022-08-04T20:49:42.713Z,93595.00
2022-08-04T20:52:16.452Z,93599.34
2022-08-04T20:54:56.171Z,93597.53
2022-08-04T21:00:13.388Z,93601.34
2022-08-04T21:02:41.458Z,93591.91
2022-08-04T21:05:09.432Z,93600.38
2022-08-04T21:07:41.830Z,93594.12
2022-08-04T21:10:11.251Z,93596.59
2022-08-04T21:12:38.875Z,93605.63
2022-08-04T21:15:14.129Z,93602.88
2022-08-04T21:17:58.320Z,93611.06
2022-08-04T21:20:33.593Z,93608.28
2022-08-04T21:23:03.642Z,93608.84
2022-08-04T21:25:32.569Z,93615.72
2022-08-04T21:28:10.692Z,93614.00
2022-08-04T21:30:52.473Z,93615.88
2022-08-04T21:33:23.322Z,93617.03
2022-08-04T21:35:54.710Z,93615.47
2022-08-04T21:38:27.884Z,93616.56
2022-08-04T21:40:56.837Z,93616.13
2022-08-04T21:43:28.570Z,93613.91
2022-08-04T21:45:56.859Z,93610.34
2022-08-04T21:48:31.737Z,93608.75
2022-08-04T21:51:21.645Z,93612.38
2022-08-04T21:54:00.182Z,93623.25
2022-08-04T21:56:27.468Z,93612.41
2022-08-04T21:58:57.955Z,93610.47
2022-08-04T22:01:50.567Z,93617.78
2022-08-04T22:04:14.284Z,93618.50
2022-08-04T22:06:42.262Z,93614.97
2022-08-04T22:09:22.072Z,93608.91
2022-08-04T22:14:39.474Z,93621.53
2022-08-04T22:17:06.752Z,93619.06
2022-08-04T22:19:55.803Z,93614.37
2022-08-04T22:22:26.765Z,93617.62
2022-08-04T22:25:01.537Z,93619.44
2022-08-04T22:27:55.206Z,93619.50
2022-08-04T22:30:23.851Z,93612.56
2022-08-04T22:32:51.263Z,93620.91
2022-08-04T22:35:30.856Z,93619.38
2022-08-04T22:38:25.564Z,93615.19
2022-08-04T22:41:12.385Z,93618.47
2022-08-04T22:43:40.148Z,93609.75
2022-08-04T22:46:08.655Z,93612.56
2022-08-04T22:48:43.525Z,93618.38
2022-08-04T22:51:13.007Z,93612.78
2022-08-04T22:53:41.887Z,93620.66
2022-08-04T22:56:37.153Z,93620.78
2022-08-04T22:59:04.252Z,93618.53
2022-08-04T23:01:45.285Z,93620.72
2022-08-04T23:04:19.153Z,93615.28
2022-08-04T23:06:46.357Z,93617.78
2022-08-04T23:09:16.278Z,93619.81
2022-08-04T23:11:44.008Z,93620.94
2022-08-04T23:14:11.496Z,93624.62
2022-08-04T23:16:40.823Z,93622.81
2022-08-04T23:19:15.227Z,93618.50
2022-08-04T23:21:47.855Z,93612.13
2022-08-04T23:24:29.799Z,93615.78
2022-08-04T23:26:57.881Z,93612.72
2022-08-04T23:29:25.590Z,93605.81
2022-08-04T23:31:59.719Z,93613.37
2022-08-04T23:34:29.119Z,93607.56
2022-08-04T23:36:59.037Z,93617.81
2022-08-04T23:40:04.272Z,93614.28
2022-08-04T23:42:15.110Z,93618.25
2022-08-04T23:44:48.527Z,93617.69
2022-08-04T23:48:15.907Z,93611.69
2022-08-04T23:50:03.647Z,93617.53
2022-08-04T23:52:31.167Z,93610.84
2022-08-04T23:54:59.431Z,93612.50
2022-08-04T23:58:02.090Z,93612.25
